sensor_id;sensor_type;location;lat;lon;timestamp;temperature;humidity
31575;DHT22;18182;1.328;103.810;2022-10-31T00:02:21;28.50;99.90
31575;DHT22;18182;1.328;103.810;2022-10-31T00:04:48;28.50;99.90
31575;DHT22;18182;1.328;103.810;2022-10-31T00:07:14;28.50;99.90
31575;DHT22;18182;1.328;103.810;2022-10-31T00:09:40;28.50;99.90
31575;DHT22;18182;1.328;103.810;2022-10-31T00:12:06;28.60;99.90
31575;DHT22;18182;1.328;103.810;2022-10-31T00:14:32;28.60;99.90
31575;DHT22;18182;1.328;103.810;2022-10-31T00:16:58;28.60;99.90
31575;DHT22;18182;1.328;103.810;2022-10-31T00:19:24;28.60;99.90
31575;DHT22;18182;1.328;103.810;2022-10-31T00:21:53;28.60;99.90
31575;DHT22;18182;1.328;103.810;2022-10-31T00:24:20;28.60;99.90
31575;DHT22;18182;1.328;103.810;2022-10-31T00:26:46;28.60;99.90
31575;DHT22;18182;1.328;103.810;2022-10-31T00:29:12;28.60;99.90
31575;DHT22;18182;1.328;103.810;2022-10-31T00:31:38;28.50;99.90
31575;DHT22;18182;1.328;103.810;2022-10-31T00:34:04;28.50;99.90
31575;DHT22;18182;1.328;103.810;2022-10-31T00:36:31;28.50;99.90
31575;DHT22;18182;1.328;103.810;2022-10-31T00:38:57;28.50;99.90
31575;DHT22;18182;1.328;103.810;2022-10-31T00:41:23;28.60;99.90
31575;DHT22;18182;1.328;103.810;2022-10-31T00:43:50;28.70;99.90
31575;DHT22;18182;1.328;103.810;2022-10-31T00:46:16;28.70;99.90
31575;DHT22;18182;1.328;103.810;2022-10-31T00:48:42;28.70;99.90
31575;DHT22;18182;1.328;103.810;2022-10-31T00:51:08;28.70;99.90
31575;DHT22;18182;1.328;103.810;2022-10-31T00:53:35;28.70;99.90
31575;DHT22;18182;1.328;103.810;2022-10-31T00:56:01;28.80;99.90
31575;DHT22;18182;1.328;103.810;2022-10-31T00:58:27;28.70;99.90
31575;DHT22;18182;1.328;103.810;2022-10-31T01:00:53;28.70;99.90
31575;DHT22;18182;1.328;103.810;2022-10-31T01:03:23;28.70;99.90
31575;DHT22;18182;1.328;103.810;2022-10-31T01:05:59;28.70;99.90
31575;DHT22;18182;1.328;103.810;2022-10-31T01:08:26;28.70;99.90
31575;DHT22;18182;1.328;103.810;2022-10-31T01:10:59;28.80;99.90
31575;DHT22;18182;1.328;103.810;2022-10-31T01:13:25;28.80;99.90
31575;DHT22;18182;1.328;103.810;2022-10-31T01:15:58;28.90;99.90
31575;DHT22;18182;1.328;103.810;2022-10-31T01:18:24;28.90;99.90
31575;DHT22;18182;1.328;103.810;2022-10-31T01:20:57;28.90;99.90
31575;DHT22;18182;1.328;103.810;2022-10-31T01:23:23;28.90;99.90
31575;DHT22;18182;1.328;103.810;2022-10-31T01:25:50;28.90;99.90
31575;DHT22;18182;1.328;103.810;2022-10-31T01:28:23;28.90;99.90
31575;DHT22;18182;1.328;103.810;2022-10-31T01:30:50;29.00;99.90
31575;DHT22;18182;1.328;103.810;2022-10-31T01:33:16;29.00;99.90
31575;DHT22;18182;1.328;103.810;2022-10-31T01:35:42;29.00;99.90
31575;DHT22;18182;1.328;103.810;2022-10-31T01:38:08;29.10;99.90
31575;DHT22;18182;1.328;103.810;2022-10-31T01:40:34;29.10;99.90
31575;DHT22;18182;1.328;103.810;2022-10-31T01:43:00;29.20;99.90
31575;DHT22;18182;1.328;103.810;2022-10-31T01:45:27;29.30;99.90
31575;DHT22;18182;1.328;103.810;2022-10-31T01:47:53;29.30;99.90
31575;DHT22;18182;1.328;103.810;2022-10-31T01:50:30;29.40;99.90
31575;DHT22;18182;1.328;103.810;2022-10-31T01:52:57;29.40;99.90
31575;DHT22;18182;1.328;103.810;2022-10-31T01:55:27;29.50;99.90
31575;DHT22;18182;1.328;103.810;2022-10-31T01:57:55;29.50;99.90
31575;DHT22;18182;1.328;103.810;2022-10-31T02:00:24;29.70;99.90
31575;DHT22;18182;1.328;103.810;2022-10-31T02:02:50;29.80;99.90
31575;DHT22;18182;1.328;103.810;2022-10-31T02:05:20;29.90;99.90
31575;DHT22;18182;1.328;103.810;2022-10-31T02:08:33;29.90;99.90
31575;DHT22;18182;1.328;103.810;2022-10-31T02:10:34;30.00;99.90
31575;DHT22;18182;1.328;103.810;2022-10-31T02:13:02;30.00;99.90
31575;DHT22;18182;1.328;103.810;2022-10-31T02:15:29;30.10;99.90
31575;DHT22;18182;1.328;103.810;2022-10-31T02:17:55;30.10;99.90
31575;DHT22;18182;1.328;103.810;2022-10-31T02:20:23;30.10;99.90
31575;DHT22;18182;1.328;103.810;2022-10-31T02:25:59;30.20;99.90
31575;DHT22;18182;1.328;103.810;2022-10-31T02:33:44;30.50;99.90
31575;DHT22;18182;1.328;103.810;2022-10-31T02:36:12;30.50;99.90
31575;DHT22;18182;1.328;103.810;2022-10-31T02:43:58;30.30;99.90
31575;DHT22;18182;1.328;103.810;2022-10-31T02:48:57;30.40;99.90
31575;DHT22;18182;1.328;103.810;2022-10-31T02:51:26;30.50;99.90
31575;DHT22;18182;1.328;103.810;2022-10-31T02:53:52;30.40;99.90
31575;DHT22;18182;1.328;103.810;2022-10-31T02:56:19;30.50;99.90
31575;DHT22;18182;1.328;103.810;2022-10-31T02:58:47;30.40;99.90
31575;DHT22;18182;1.328;103.810;2022-10-31T03:01:38;30.30;99.90
31575;DHT22;18182;1.328;103.810;2022-10-31T03:04:22;30.30;99.90
31575;DHT22;18182;1.328;103.810;2022-10-31T03:14:26;30.40;99.90
31575;DHT22;18182;1.328;103.810;2022-10-31T03:16:53;30.50;99.90
31575;DHT22;18182;1.328;103.810;2022-10-31T03:19:23;30.50;99.90
31575;DHT22;18182;1.328;103.810;2022-10-31T03:21:53;30.60;99.90
31575;DHT22;18182;1.328;103.810;2022-10-31T03:24:21;30.70;99.90
31575;DHT22;18182;1.328;103.810;2022-10-31T03:26:48;30.80;99.90
31575;DHT22;18182;1.328;103.810;2022-10-31T03:29:16;30.90;99.90
31575;DHT22;18182;1.328;103.810;2022-10-31T03:34:29;30.90;99.90
31575;DHT22;18182;1.328;103.810;2022-10-31T03:36:57;30.90;99.90
31575;DHT22;18182;1.328;103.810;2022-10-31T03:39:25;30.90;99.90
31575;DHT22;18182;1.328;103.810;2022-10-31T03:41:56;31.10;99.90
31575;DHT22;18182;1.328;103.810;2022-10-31T03:44:23;31.20;99.90
31575;DHT22;18182;1.328;103.810;2022-10-31T03:46:49;31.20;99.90
31575;DHT22;18182;1.328;103.810;2022-10-31T03:49:16;31.20;99.90
31575;DHT22;18182;1.328;103.810;2022-10-31T03:56:52;31.20;99.90
31575;DHT22;18182;1.328;103.810;2022-10-31T04:01:46;31.30;99.90
31575;DHT22;18182;1.328;103.810;2022-10-31T04:04:14;31.30;99.90
31575;DHT22;18182;1.328;103.810;2022-10-31T04:06:40;31.30;99.90
31575;DHT22;18182;1.328;103.810;2022-10-31T04:09:07;31.30;99.90
31575;DHT22;18182;1.328;103.810;2022-10-31T04:11:35;31.20;99.90
31575;DHT22;18182;1.328;103.810;2022-10-31T04:14:02;31.20;99.90
31575;DHT22;18182;1.328;103.810;2022-10-31T04:16:30;31.20;99.90
31575;DHT22;18182;1.328;103.810;2022-10-31T04:18:56;31.30;99.90
31575;DHT22;18182;1.328;103.810;2022-10-31T04:21:29;31.30;99.90
31575;DHT22;18182;1.328;103.810;2022-10-31T04:23:56;31.20;99.90
31575;DHT22;18182;1.328;103.810;2022-10-31T04:26:22;31.20;99.90
31575;DHT22;18182;1.328;103.810;2022-10-31T04:28:48;31.30;99.90
31575;DHT22;18182;1.328;103.810;2022-10-31T04:31:14;31.20;99.90
31575;DHT22;18182;1.328;103.810;2022-10-31T04:33:41;31.20;99.90
31575;DHT22;18182;1.328;103.810;2022-10-31T04:36:07;31.20;99.90
31575;DHT22;18182;1.328;103.810;2022-10-31T04:38:33;31.30;99.90
31575;DHT22;18182;1.328;103.810;2022-10-31T04:40:59;31.30;99.90
31575;DHT22;18182;1.328;103.810;2022-10-31T04:43:25;31.40;99.90
31575;DHT22;18182;1.328;103.810;2022-10-31T04:45:51;31.40;99.90
31575;DHT22;18182;1.328;103.810;2022-10-31T04:48:18;31.40;99.90
31575;DHT22;18182;1.328;103.810;2022-10-31T04:50:44;31.40;99.90
31575;DHT22;18182;1.328;103.810;2022-10-31T04:53:10;31.40;99.90
31575;DHT22;18182;1.328;103.810;2022-10-31T04:55:36;31.40;99.90
31575;DHT22;18182;1.328;103.810;2022-10-31T04:58:02;31.40;99.90
31575;DHT22;18182;1.328;103.810;2022-10-31T05:00:28;31.40;99.90
31575;DHT22;18182;1.328;103.810;2022-10-31T05:02:55;31.50;99.90
31575;DHT22;18182;1.328;103.810;2022-10-31T05:05:22;31.50;99.90
31575;DHT22;18182;1.328;103.810;2022-10-31T05:07:49;31.60;99.90
31575;DHT22;18182;1.328;103.810;2022-10-31T05:10:22;31.70;99.90
31575;DHT22;18182;1.328;103.810;2022-10-31T05:12:52;31.80;99.90
31575;DHT22;18182;1.328;103.810;2022-10-31T05:15:19;31.90;99.90
31575;DHT22;18182;1.328;103.810;2022-10-31T05:17:45;31.90;99.90
31575;DHT22;18182;1.328;103.810;2022-10-31T05:20:12;31.90;99.90
31575;DHT22;18182;1.328;103.810;2022-10-31T05:22:46;31.90;99.90
31575;DHT22;18182;1.328;103.810;2022-10-31T05:25:12;32.00;99.90
31575;DHT22;18182;1.328;103.810;2022-10-31T05:27:39;32.00;99.90
31575;DHT22;18182;1.328;103.810;2022-10-31T05:30:06;32.00;99.90
31575;DHT22;18182;1.328;103.810;2022-10-31T05:32:38;32.10;99.90
31575;DHT22;18182;1.328;103.810;2022-10-31T05:35:05;32.20;99.90
31575;DHT22;18182;1.328;103.810;2022-10-31T05:37:36;32.20;99.80
31575;DHT22;18182;1.328;103.810;2022-10-31T05:40:02;32.20;99.70
31575;DHT22;18182;1.328;103.810;2022-10-31T05:42:29;32.30;99.80
31575;DHT22;18182;1.328;103.810;2022-10-31T05:44:55;32.30;99.90
31575;DHT22;18182;1.328;103.810;2022-10-31T05:47:21;32.30;99.90
31575;DHT22;18182;1.328;103.810;2022-10-31T05:49:47;32.30;99.80
31575;DHT22;18182;1.328;103.810;2022-10-31T05:52:13;32.30;99.50
31575;DHT22;18182;1.328;103.810;2022-10-31T05:54:39;32.40;99.50
31575;DHT22;18182;1.328;103.810;2022-10-31T05:57:05;32.40;99.70
31575;DHT22;18182;1.328;103.810;2022-10-31T05:59:32;32.50;99.70
31575;DHT22;18182;1.328;103.810;2022-10-31T06:01:58;32.50;99.60
31575;DHT22;18182;1.328;103.810;2022-10-31T06:04:24;32.60;99.40
31575;DHT22;18182;1.328;103.810;2022-10-31T06:06:50;32.50;99.10
31575;DHT22;18182;1.328;103.810;2022-10-31T06:09:16;32.50;99.20
31575;DHT22;18182;1.328;103.810;2022-10-31T06:11:42;32.50;99.60
31575;DHT22;18182;1.328;103.810;2022-10-31T06:14:08;32.60;99.40
31575;DHT22;18182;1.328;103.810;2022-10-31T06:16:35;32.60;99.30
31575;DHT22;18182;1.328;103.810;2022-10-31T06:19:01;32.60;99.10
31575;DHT22;18182;1.328;103.810;2022-10-31T06:21:27;32.60;99.00
31575;DHT22;18182;1.328;103.810;2022-10-31T06:23:53;32.50;98.60
31575;DHT22;18182;1.328;103.810;2022-10-31T06:26:19;32.50;98.70
31575;DHT22;18182;1.328;103.810;2022-10-31T06:28:45;32.40;98.80
31575;DHT22;18182;1.328;103.810;2022-10-31T06:31:11;32.40;99.10
31575;DHT22;18182;1.328;103.810;2022-10-31T06:33:37;32.40;99.20
31575;DHT22;18182;1.328;103.810;2022-10-31T06:36:03;32.50;99.30
31575;DHT22;18182;1.328;103.810;2022-10-31T06:38:30;32.50;99.30
31575;DHT22;18182;1.328;103.810;2022-10-31T06:40:56;32.50;99.00
31575;DHT22;18182;1.328;103.810;2022-10-31T06:43:22;32.40;99.30
31575;DHT22;18182;1.328;103.810;2022-10-31T06:45:48;32.40;99.20
31575;DHT22;18182;1.328;103.810;2022-10-31T06:48:14;32.40;99.30
31575;DHT22;18182;1.328;103.810;2022-10-31T06:50:40;32.40;99.40
31575;DHT22;18182;1.328;103.810;2022-10-31T06:53:07;32.40;99.20
31575;DHT22;18182;1.328;103.810;2022-10-31T06:55:33;32.30;98.90
31575;DHT22;18182;1.328;103.810;2022-10-31T06:58:00;32.30;98.90
31575;DHT22;18182;1.328;103.810;2022-10-31T07:00:27;32.40;98.80
31575;DHT22;18182;1.328;103.810;2022-10-31T07:02:56;32.40;98.20
31575;DHT22;18182;1.328;103.810;2022-10-31T07:05:23;32.30;99.00
31575;DHT22;18182;1.328;103.810;2022-10-31T07:07:55;32.30;99.30
31575;DHT22;18182;1.328;103.810;2022-10-31T07:10:22;32.40;99.60
31575;DHT22;18182;1.328;103.810;2022-10-31T07:12:53;32.50;99.30
31575;DHT22;18182;1.328;103.810;2022-10-31T07:15:19;32.60;99.10
31575;DHT22;18182;1.328;103.810;2022-10-31T07:17:45;32.60;99.00
31575;DHT22;18182;1.328;103.810;2022-10-31T07:20:11;32.60;98.80
31575;DHT22;18182;1.328;103.810;2022-10-31T07:22:37;32.40;99.40
31575;DHT22;18182;1.328;103.810;2022-10-31T07:25:04;32.40;99.50
31575;DHT22;18182;1.328;103.810;2022-10-31T07:27:37;32.40;99.50
31575;DHT22;18182;1.328;103.810;2022-10-31T07:30:03;32.40;99.30
31575;DHT22;18182;1.328;103.810;2022-10-31T07:32:42;32.30;99.10
31575;DHT22;18182;1.328;103.810;2022-10-31T07:35:09;32.10;99.40
31575;DHT22;18182;1.328;103.810;2022-10-31T07:37:36;32.00;99.30
31575;DHT22;18182;1.328;103.810;2022-10-31T07:40:02;32.00;99.60
31575;DHT22;18182;1.328;103.810;2022-10-31T07:42:29;32.10;99.60
31575;DHT22;18182;1.328;103.810;2022-10-31T07:44:55;32.20;99.30
31575;DHT22;18182;1.328;103.810;2022-10-31T07:47:21;32.30;99.50
31575;DHT22;18182;1.328;103.810;2022-10-31T07:49:47;32.40;99.50
31575;DHT22;18182;1.328;103.810;2022-10-31T07:52:13;32.40;99.40
31575;DHT22;18182;1.328;103.810;2022-10-31T07:54:39;32.40;99.50
31575;DHT22;18182;1.328;103.810;2022-10-31T07:57:05;32.30;99.20
31575;DHT22;18182;1.328;103.810;2022-10-31T07:59:31;32.30;99.30
31575;DHT22;18182;1.328;103.810;2022-10-31T08:01:58;32.30;99.50
31575;DHT22;18182;1.328;103.810;2022-10-31T08:04:24;32.20;99.70
31575;DHT22;18182;1.328;103.810;2022-10-31T08:06:50;32.10;99.90
31575;DHT22;18182;1.328;103.810;2022-10-31T08:09:16;32.10;99.90
31575;DHT22;18182;1.328;103.810;2022-10-31T08:11:42;32.20;99.90
31575;DHT22;18182;1.328;103.810;2022-10-31T08:14:08;32.10;99.60
31575;DHT22;18182;1.328;103.810;2022-10-31T08:16:34;32.10;99.70
31575;DHT22;18182;1.328;103.810;2022-10-31T08:19:00;32.10;99.90
31575;DHT22;18182;1.328;103.810;2022-10-31T08:21:26;32.10;99.90
31575;DHT22;18182;1.328;103.810;2022-10-31T08:23:53;32.00;99.90
31575;DHT22;18182;1.328;103.810;2022-10-31T08:26:19;32.00;99.90
31575;DHT22;18182;1.328;103.810;2022-10-31T08:28:45;32.10;99.80
31575;DHT22;18182;1.328;103.810;2022-10-31T08:31:12;32.10;99.50
31575;DHT22;18182;1.328;103.810;2022-10-31T08:33:38;32.00;99.60
31575;DHT22;18182;1.328;103.810;2022-10-31T08:36:04;32.00;99.50
31575;DHT22;18182;1.328;103.810;2022-10-31T08:38:30;32.00;99.60
31575;DHT22;18182;1.328;103.810;2022-10-31T08:40:56;31.90;99.50
31575;DHT22;18182;1.328;103.810;2022-10-31T08:43:22;31.90;99.70
31575;DHT22;18182;1.328;103.810;2022-10-31T08:45:48;31.90;99.90
31575;DHT22;18182;1.328;103.810;2022-10-31T08:48:16;31.90;99.90
31575;DHT22;18182;1.328;103.810;2022-10-31T08:50:43;31.80;99.90
31575;DHT22;18182;1.328;103.810;2022-10-31T08:53:14;31.80;99.90
31575;DHT22;18182;1.328;103.810;2022-10-31T08:55:40;31.80;99.90
31575;DHT22;18182;1.328;103.810;2022-10-31T08:58:09;31.80;99.90
31575;DHT22;18182;1.328;103.810;2022-10-31T09:00:36;31.80;99.90
31575;DHT22;18182;1.328;103.810;2022-10-31T09:03:15;31.80;99.90
31575;DHT22;18182;1.328;103.810;2022-10-31T09:05:41;31.80;99.90
31575;DHT22;18182;1.328;103.810;2022-10-31T09:08:08;31.70;99.90
31575;DHT22;18182;1.328;103.810;2022-10-31T09:10:34;31.70;99.90
31575;DHT22;18182;1.328;103.810;2022-10-31T09:13:05;31.70;99.90
31575;DHT22;18182;1.328;103.810;2022-10-31T09:15:35;31.60;99.90
31575;DHT22;18182;1.328;103.810;2022-10-31T09:18:01;31.60;99.90
31575;DHT22;18182;1.328;103.810;2022-10-31T09:20:28;31.50;99.90
31575;DHT22;18182;1.328;103.810;2022-10-31T09:22:55;31.50;99.90
31575;DHT22;18182;1.328;103.810;2022-10-31T09:25:21;31.50;99.90
31575;DHT22;18182;1.328;103.810;2022-10-31T09:27:47;31.50;99.90
31575;DHT22;18182;1.328;103.810;2022-10-31T09:30:13;31.50;99.90
31575;DHT22;18182;1.328;103.810;2022-10-31T09:32:40;31.50;99.90
31575;DHT22;18182;1.328;103.810;2022-10-31T09:35:06;31.50;99.90
31575;DHT22;18182;1.328;103.810;2022-10-31T09:37:32;31.50;99.90
31575;DHT22;18182;1.328;103.810;2022-10-31T09:39:58;31.50;99.90
31575;DHT22;18182;1.328;103.810;2022-10-31T09:45:11;31.50;99.90
31575;DHT22;18182;1.328;103.810;2022-10-31T09:50:18;31.40;99.90
31575;DHT22;18182;1.328;103.810;2022-10-31T09:52:50;31.30;99.90
31575;DHT22;18182;1.328;103.810;2022-10-31T09:55:24;31.30;99.90
31575;DHT22;18182;1.328;103.810;2022-10-31T09:57:51;31.20;99.90
31575;DHT22;18182;1.328;103.810;2022-10-31T10:00:18;31.10;99.90
31575;DHT22;18182;1.328;103.810;2022-10-31T10:02:53;31.20;99.90
31575;DHT22;18182;1.328;103.810;2022-10-31T10:05:28;31.10;99.90
31575;DHT22;18182;1.328;103.810;2022-10-31T10:08:12;31.10;99.90
31575;DHT22;18182;1.328;103.810;2022-10-31T10:18:28;30.90;99.90
31575;DHT22;18182;1.328;103.810;2022-10-31T10:20:59;30.90;99.90
31575;DHT22;18182;1.328;103.810;2022-10-31T10:23:33;30.90;99.90
31575;DHT22;18182;1.328;103.810;2022-10-31T10:26:02;30.90;99.90
31575;DHT22;18182;1.328;103.810;2022-10-31T10:28:33;30.80;99.90
31575;DHT22;18182;1.328;103.810;2022-10-31T10:31:13;30.80;99.90
31575;DHT22;18182;1.328;103.810;2022-10-31T10:33:41;30.70;99.90
31575;DHT22;18182;1.328;103.810;2022-10-31T10:36:10;30.70;99.90
31575;DHT22;18182;1.328;103.810;2022-10-31T10:41:10;30.60;99.90
31575;DHT22;18182;1.328;103.810;2022-10-31T10:43:37;30.60;99.90
31575;DHT22;18182;1.328;103.810;2022-10-31T10:49:17;30.60;99.90
31575;DHT22;18182;1.328;103.810;2022-10-31T10:51:59;30.50;99.90
31575;DHT22;18182;1.328;103.810;2022-10-31T10:59:39;30.40;99.90
31575;DHT22;18182;1.328;103.810;2022-10-31T11:02:17;30.40;99.90
31575;DHT22;18182;1.328;103.810;2022-10-31T11:04:43;30.40;99.90
31575;DHT22;18182;1.328;103.810;2022-10-31T11:07:11;30.40;99.90
31575;DHT22;18182;1.328;103.810;2022-10-31T11:09:37;30.40;99.90
31575;DHT22;18182;1.328;103.810;2022-10-31T11:12:08;30.40;99.90
31575;DHT22;18182;1.328;103.810;2022-10-31T11:14:45;30.40;99.90
31575;DHT22;18182;1.328;103.810;2022-10-31T11:17:20;30.30;99.90
31575;DHT22;18182;1.328;103.810;2022-10-31T11:19:48;30.30;99.90
31575;DHT22;18182;1.328;103.810;2022-10-31T11:22:25;30.30;99.90
31575;DHT22;18182;1.328;103.810;2022-10-31T11:24:51;30.30;99.90
31575;DHT22;18182;1.328;103.810;2022-10-31T11:27:21;30.30;99.90
31575;DHT22;18182;1.328;103.810;2022-10-31T11:29:48;30.30;99.90
31575;DHT22;18182;1.328;103.810;2022-10-31T11:32:35;30.30;99.90
31575;DHT22;18182;1.328;103.810;2022-10-31T11:35:01;30.30;99.90
31575;DHT22;18182;1.328;103.810;2022-10-31T11:37:30;30.30;99.90
31575;DHT22;18182;1.328;103.810;2022-10-31T11:40:02;30.30;99.90
31575;DHT22;18182;1.328;103.810;2022-10-31T11:42:39;30.30;99.90
31575;DHT22;18182;1.328;103.810;2022-10-31T11:47:46;30.30;99.90
31575;DHT22;18182;1.328;103.810;2022-10-31T11:50:18;30.30;99.90
31575;DHT22;18182;1.328;103.810;2022-10-31T11:52:44;30.30;99.90
31575;DHT22;18182;1.328;103.810;2022-10-31T11:57:44;30.30;99.90
31575;DHT22;18182;1.328;103.810;2022-10-31T12:02:49;30.30;99.90
31575;DHT22;18182;1.328;103.810;2022-10-31T12:07:45;30.30;99.90
31575;DHT22;18182;1.328;103.810;2022-10-31T12:10:11;30.30;99.90
31575;DHT22;18182;1.328;103.810;2022-10-31T12:12:50;30.30;99.90
31575;DHT22;18182;1.328;103.810;2022-10-31T12:17:58;30.30;99.90
31575;DHT22;18182;1.328;103.810;2022-10-31T12:20:41;30.30;99.90
31575;DHT22;18182;1.328;103.810;2022-10-31T12:23:16;30.20;99.90
31575;DHT22;18182;1.328;103.810;2022-10-31T12:26:27;30.20;99.90
31575;DHT22;18182;1.328;103.810;2022-10-31T12:39:42;30.10;99.90
31575;DHT22;18182;1.328;103.810;2022-10-31T12:41:51;30.20;99.90
31575;DHT22;18182;1.328;103.810;2022-10-31T12:44:38;30.10;99.90
31575;DHT22;18182;1.328;103.810;2022-10-31T12:47:29;30.10;99.90
31575;DHT22;18182;1.328;103.810;2022-10-31T12:52:30;30.10;99.90
31575;DHT22;18182;1.328;103.810;2022-10-31T12:57:45;30.10;99.90
31575;DHT22;18182;1.328;103.810;2022-10-31T13:00:12;30.10;99.90
31575;DHT22;18182;1.328;103.810;2022-10-31T13:03:00;30.10;99.90
31575;DHT22;18182;1.328;103.810;2022-10-31T13:05:36;30.10;99.90
31575;DHT22;18182;1.328;103.810;2022-10-31T13:08:05;30.10;99.90
31575;DHT22;18182;1.328;103.810;2022-10-31T13:10:55;30.10;99.90
31575;DHT22;18182;1.328;103.810;2022-10-31T13:13:19;30.10;99.90
31575;DHT22;18182;1.328;103.810;2022-10-31T13:15:48;30.10;99.90
31575;DHT22;18182;1.328;103.810;2022-10-31T13:18:21;30.10;99.90
31575;DHT22;18182;1.328;103.810;2022-10-31T13:20:48;30.20;99.90
31575;DHT22;18182;1.328;103.810;2022-10-31T13:25:54;30.20;99.90
31575;DHT22;18182;1.328;103.810;2022-10-31T13:30:46;30.20;99.90
31575;DHT22;18182;1.328;103.810;2022-10-31T13:35:45;30.20;99.90
31575;DHT22;18182;1.328;103.810;2022-10-31T13:40:51;30.20;99.90
31575;DHT22;18182;1.328;103.810;2022-10-31T13:43:23;30.20;99.90
31575;DHT22;18182;1.328;103.810;2022-10-31T13:45:52;30.20;99.90
31575;DHT22;18182;1.328;103.810;2022-10-31T13:50:58;30.10;99.90
31575;DHT22;18182;1.328;103.810;2022-10-31T13:53:44;30.10;99.90
31575;DHT22;18182;1.328;103.810;2022-10-31T13:56:21;30.10;99.90
31575;DHT22;18182;1.328;103.810;2022-10-31T14:01:20;30.20;99.90
31575;DHT22;18182;1.328;103.810;2022-10-31T14:03:55;30.10;99.90
31575;DHT22;18182;1.328;103.810;2022-10-31T14:06:22;30.10;99.90
31575;DHT22;18182;1.328;103.810;2022-10-31T14:08:49;30.10;99.90
31575;DHT22;18182;1.328;103.810;2022-10-31T14:11:19;30.10;99.90
31575;DHT22;18182;1.328;103.810;2022-10-31T14:13:48;30.10;99.90
31575;DHT22;18182;1.328;103.810;2022-10-31T14:16:24;30.10;99.90
31575;DHT22;18182;1.328;103.810;2022-10-31T14:19:02;30.10;99.90
31575;DHT22;18182;1.328;103.810;2022-10-31T14:27:00;30.00;99.90
31575;DHT22;18182;1.328;103.810;2022-10-31T14:29:28;30.00;99.90
31575;DHT22;18182;1.328;103.810;2022-10-31T14:34:27;30.00;99.90
31575;DHT22;18182;1.328;103.810;2022-10-31T14:44:54;29.90;99.90
31575;DHT22;18182;1.328;103.810;2022-10-31T14:49:55;29.80;99.90
31575;DHT22;18182;1.328;103.810;2022-10-31T14:52:24;29.80;99.90
31575;DHT22;18182;1.328;103.810;2022-10-31T14:54:54;29.80;99.90
31575;DHT22;18182;1.328;103.810;2022-10-31T14:57:25;29.80;99.90
31575;DHT22;18182;1.328;103.810;2022-10-31T14:59:54;29.80;99.90
31575;DHT22;18182;1.328;103.810;2022-10-31T15:02:39;29.80;99.90
31575;DHT22;18182;1.328;103.810;2022-10-31T15:05:09;29.80;99.90
31575;DHT22;18182;1.328;103.810;2022-10-31T15:07:36;29.70;99.90
31575;DHT22;18182;1.328;103.810;2022-10-31T15:10:15;29.70;99.90
31575;DHT22;18182;1.328;103.810;2022-10-31T15:12:44;29.80;99.90
31575;DHT22;18182;1.328;103.810;2022-10-31T15:15:14;29.70;99.90
31575;DHT22;18182;1.328;103.810;2022-10-31T15:17:43;29.70;99.90
31575;DHT22;18182;1.328;103.810;2022-10-31T15:20:11;29.70;99.90
31575;DHT22;18182;1.328;103.810;2022-10-31T15:22:37;29.70;99.90
31575;DHT22;18182;1.328;103.810;2022-10-31T15:25:04;29.60;99.90
31575;DHT22;18182;1.328;103.810;2022-10-31T15:27:31;29.60;99.90
31575;DHT22;18182;1.328;103.810;2022-10-31T15:29:59;29.60;99.90
31575;DHT22;18182;1.328;103.810;2022-10-31T15:32:28;29.60;99.90
31575;DHT22;18182;1.328;103.810;2022-10-31T15:34:55;29.60;99.90
31575;DHT22;18182;1.328;103.810;2022-10-31T15:37:22;29.60;99.90
31575;DHT22;18182;1.328;103.810;2022-10-31T15:39:50;29.60;99.90
31575;DHT22;18182;1.328;103.810;2022-10-31T15:42:18;29.50;99.90
31575;DHT22;18182;1.328;103.810;2022-10-31T15:44:46;29.50;99.90
31575;DHT22;18182;1.328;103.810;2022-10-31T15:47:17;29.50;99.90
31575;DHT22;18182;1.328;103.810;2022-10-31T15:49:53;29.50;99.90
31575;DHT22;18182;1.328;103.810;2022-10-31T15:54:57;29.50;99.90
31575;DHT22;18182;1.328;103.810;2022-10-31T15:57:23;29.50;99.90
31575;DHT22;18182;1.328;103.810;2022-10-31T15:59:52;29.50;99.90
31575;DHT22;18182;1.328;103.810;2022-10-31T16:02:19;29.50;99.90
31575;DHT22;18182;1.328;103.810;2022-10-31T16:07:16;29.40;99.90
31575;DHT22;18182;1.328;103.810;2022-10-31T16:12:18;29.50;99.90
31575;DHT22;18182;1.328;103.810;2022-10-31T16:14:44;29.50;99.90
31575;DHT22;18182;1.328;103.810;2022-10-31T16:17:12;29.50;99.90
31575;DHT22;18182;1.328;103.810;2022-10-31T16:19:46;29.50;99.90
31575;DHT22;18182;1.328;103.810;2022-10-31T16:22:14;29.40;99.90
31575;DHT22;18182;1.328;103.810;2022-10-31T16:24:50;29.50;99.90
31575;DHT22;18182;1.328;103.810;2022-10-31T16:27:18;29.50;99.90
31575;DHT22;18182;1.328;103.810;2022-10-31T16:29:46;29.50;99.90
31575;DHT22;18182;1.328;103.810;2022-10-31T16:34:57;29.50;99.90
31575;DHT22;18182;1.328;103.810;2022-10-31T16:37:23;29.50;99.90
31575;DHT22;18182;1.328;103.810;2022-10-31T16:39:49;29.50;99.90
31575;DHT22;18182;1.328;103.810;2022-10-31T16:42:15;29.50;99.90
31575;DHT22;18182;1.328;103.810;2022-10-31T16:44:42;29.50;99.90
31575;DHT22;18182;1.328;103.810;2022-10-31T16:47:12;29.40;99.90
31575;DHT22;18182;1.328;103.810;2022-10-31T16:49:38;29.40;99.90
31575;DHT22;18182;1.328;103.810;2022-10-31T16:52:04;29.40;99.90
31575;DHT22;18182;1.328;103.810;2022-10-31T16:54:31;29.30;99.90
31575;DHT22;18182;1.328;103.810;2022-10-31T16:57:00;29.30;99.90
31575;DHT22;18182;1.328;103.810;2022-10-31T16:59:26;29.30;99.90
31575;DHT22;18182;1.328;103.810;2022-10-31T17:01:53;29.20;99.90
31575;DHT22;18182;1.328;103.810;2022-10-31T17:04:20;29.20;99.90
31575;DHT22;18182;1.328;103.810;2022-10-31T17:06:46;29.20;99.90
31575;DHT22;18182;1.328;103.810;2022-10-31T17:09:12;29.20;99.90
31575;DHT22;18182;1.328;103.810;2022-10-31T17:11:43;29.10;99.90
31575;DHT22;18182;1.328;103.810;2022-10-31T17:14:10;29.10;99.90
31575;DHT22;18182;1.328;103.810;2022-10-31T17:16:37;29.10;99.90
31575;DHT22;18182;1.328;103.810;2022-10-31T17:19:03;29.10;99.90
31575;DHT22;18182;1.328;103.810;2022-10-31T17:21:29;29.10;99.90
31575;DHT22;18182;1.328;103.810;2022-10-31T17:23:55;29.10;99.90
31575;DHT22;18182;1.328;103.810;2022-10-31T17:26:21;29.10;99.90
31575;DHT22;18182;1.328;103.810;2022-10-31T17:28:47;29.10;99.90
31575;DHT22;18182;1.328;103.810;2022-10-31T17:31:20;29.10;99.90
31575;DHT22;18182;1.328;103.810;2022-10-31T17:33:47;29.10;99.90
31575;DHT22;18182;1.328;103.810;2022-10-31T17:36:13;29.20;99.90